sensor_id;sensor_type;location;lat;lon;timestamp;pressure;altitude;pressure_sealevel;temperature;humidity
48404;BME280;34202;52.536;6.042;2024-03-06T00:01:07;101905.54;;;6.67;100.00
48404;BME280;34202;52.536;6.042;2024-03-06T00:06:07;101910.00;;;6.66;100.00
48404;BME280;34202;52.536;6.042;2024-03-06T00:11:08;101909.61;;;6.65;100.00
48404;BME280;34202;52.536;6.042;2024-03-06T00:16:08;101917.28;;;6.67;100.00
48404;BME280;34202;52.536;6.042;2024-03-06T00:21:09;101929.69;;;6.70;100.00
48404;BME280;34202;52.536;6.042;2024-03-06T00:26:10;101927.56;;;6.73;100.00
48404;BME280;34202;52.536;6.042;2024-03-06T00:31:11;101930.42;;;6.75;100.00
48404;BME280;34202;52.536;6.042;2024-03-06T00:36:11;101934.24;;;6.75;100.00
48404;BME280;34202;52.536;6.042;2024-03-06T00:41:12;101938.06;;;6.76;100.00
48404;BME280;34202;52.536;6.042;2024-03-06T00:46:12;101940.68;;;6.76;100.00
48404;BME280;34202;52.536;6.042;2024-03-06T00:51:12;101946.45;;;6.78;100.00
48404;BME280;34202;52.536;6.042;2024-03-06T00:56:13;101953.65;;;6.80;100.00
48404;BME280;34202;52.536;6.042;2024-03-06T01:01:15;101964.77;;;6.82;100.00
48404;BME280;34202;52.536;6.042;2024-03-06T01:06:15;101967.35;;;6.82;100.00
48404;BME280;34202;52.536;6.042;2024-03-06T01:11:16;101966.98;;;6.81;100.00
48404;BME280;34202;52.536;6.042;2024-03-06T01:16:16;101969.91;;;6.81;100.00
48404;BME280;34202;52.536;6.042;2024-03-06T01:21:17;101973.58;;;6.77;100.00
48404;BME280;34202;52.536;6.042;2024-03-06T01:26:17;101976.61;;;6.71;100.00
48404;BME280;34202;52.536;6.042;2024-03-06T01:31:18;101987.08;;;6.64;100.00
48404;BME280;34202;52.536;6.042;2024-03-06T01:36:18;101987.49;;;6.62;100.00
48404;BME280;34202;52.536;6.042;2024-03-06T01:41:19;101988.23;;;6.59;100.00
48404;BME280;34202;52.536;6.042;2024-03-06T01:46:20;101992.27;;;6.56;100.00
48404;BME280;34202;52.536;6.042;2024-03-06T01:51:20;101994.99;;;6.55;100.00
48404;BME280;34202;52.536;6.042;2024-03-06T01:56:20;101995.02;;;6.55;100.00
48404;BME280;34202;52.536;6.042;2024-03-06T02:01:21;101995.73;;;6.56;100.00
48404;BME280;34202;52.536;6.042;2024-03-06T02:06:22;102003.11;;;6.55;100.00
48404;BME280;34202;52.536;6.042;2024-03-06T02:11:23;102005.02;;;6.55;100.00
48404;BME280;34202;52.536;6.042;2024-03-06T02:16:23;102006.44;;;6.56;100.00
48404;BME280;34202;52.536;6.042;2024-03-06T02:21:24;102010.54;;;6.54;100.00
48404;BME280;34202;52.536;6.042;2024-03-06T02:26:25;102014.22;;;6.52;100.00
48404;BME280;34202;52.536;6.042;2024-03-06T02:31:25;102020.08;;;6.51;100.00
48404;BME280;34202;52.536;6.042;2024-03-06T02:36:26;102017.67;;;6.51;100.00
48404;BME280;34202;52.536;6.042;2024-03-06T02:41:26;102013.34;;;6.51;100.00
48404;BME280;34202;52.536;6.042;2024-03-06T02:46:27;102020.95;;;6.51;100.00
48404;BME280;34202;52.536;6.042;2024-03-06T02:51:27;102022.71;;;6.52;100.00
48404;BME280;34202;52.536;6.042;2024-03-06T02:56:28;102025.29;;;6.52;100.00
48404;BME280;34202;52.536;6.042;2024-03-06T03:01:29;102024.44;;;6.52;100.00
48404;BME280;34202;52.536;6.042;2024-03-06T03:06:30;102027.81;;;6.54;100.00
48404;BME280;34202;52.536;6.042;2024-03-06T03:11:30;102030.96;;;6.55;100.00
48404;BME280;34202;52.536;6.042;2024-03-06T03:16:32;102027.98;;;6.54;100.00
48404;BME280;34202;52.536;6.042;2024-03-06T03:21:32;102029.76;;;6.55;100.00
48404;BME280;34202;52.536;6.042;2024-03-06T03:26:33;102031.91;;;6.56;100.00
48404;BME280;34202;52.536;6.042;2024-03-06T03:31:33;102035.95;;;6.58;100.00
48404;BME280;34202;52.536;6.042;2024-03-06T03:36:34;102038.08;;;6.59;100.00
48404;BME280;34202;52.536;6.042;2024-03-06T03:41:35;102043.23;;;6.59;100.00
48404;BME280;34202;52.536;6.042;2024-03-06T03:46:35;102043.17;;;6.57;100.00
48404;BME280;34202;52.536;6.042;2024-03-06T03:51:36;102042.77;;;6.55;100.00
48404;BME280;34202;52.536;6.042;2024-03-06T03:56:37;102043.77;;;6.55;100.00
48404;BME280;34202;52.536;6.042;2024-03-06T04:01:38;102044.86;;;6.52;100.00
48404;BME280;34202;52.536;6.042;2024-03-06T04:06:38;102051.81;;;6.49;100.00
48404;BME280;34202;52.536;6.042;2024-03-06T04:11:38;102049.91;;;6.45;100.00
48404;BME280;34202;52.536;6.042;2024-03-06T04:16:39;102057.23;;;6.42;100.00
48404;BME280;34202;52.536;6.042;2024-03-06T04:21:42;102060.61;;;6.41;100.00
48404;BME280;34202;52.536;6.042;2024-03-06T04:26:43;102059.42;;;6.41;100.00
48404;BME280;34202;52.536;6.042;2024-03-06T04:31:43;102060.27;;;6.41;100.00
48404;BME280;34202;52.536;6.042;2024-03-06T04:36:44;102063.27;;;6.42;100.00
48404;BME280;34202;52.536;6.042;2024-03-06T04:41:44;102067.71;;;6.41;100.00
48404;BME280;34202;52.536;6.042;2024-03-06T04:46:44;102076.39;;;6.41;100.00
48404;BME280;34202;52.536;6.042;2024-03-06T04:51:45;102076.41;;;6.42;100.00
48404;BME280;34202;52.536;6.042;2024-03-06T04:56:45;102084.73;;;6.43;100.00
48404;BME280;34202;52.536;6.042;2024-03-06T05:01:46;102090.30;;;6.43;100.00
48404;BME280;34202;52.536;6.042;2024-03-06T05:06:46;102097.48;;;6.41;100.00
48404;BME280;34202;52.536;6.042;2024-03-06T05:11:47;102099.02;;;6.37;100.00
48404;BME280;34202;52.536;6.042;2024-03-06T05:16:50;102108.44;;;6.34;100.00
48404;BME280;34202;52.536;6.042;2024-03-06T05:21:51;102111.95;;;6.32;100.00
48404;BME280;34202;52.536;6.042;2024-03-06T05:26:52;102122.71;;;6.29;100.00
48404;BME280;34202;52.536;6.042;2024-03-06T05:31:52;102127.20;;;6.25;100.00
48404;BME280;34202;52.536;6.042;2024-03-06T05:36:53;102133.85;;;6.23;100.00
48404;BME280;34202;52.536;6.042;2024-03-06T05:42:00;102133.84;;;6.23;100.00
48404;BME280;34202;52.536;6.042;2024-03-06T05:47:03;102138.60;;;6.21;100.00
48404;BME280;34202;52.536;6.042;2024-03-06T05:52:03;102150.77;;;6.23;100.00
48404;BME280;34202;52.536;6.042;2024-03-06T05:57:04;102157.65;;;6.22;100.00
48404;BME280;34202;52.536;6.042;2024-03-06T06:02:05;102163.80;;;6.20;100.00
48404;BME280;34202;52.536;6.042;2024-03-06T06:07:05;102165.98;;;6.18;100.00
48404;BME280;34202;52.536;6.042;2024-03-06T06:12:05;102171.30;;;6.17;100.00
48404;BME280;34202;52.536;6.042;2024-03-06T06:17:06;102175.89;;;6.16;100.00
48404;BME280;34202;52.536;6.042;2024-03-06T06:22:06;102183.09;;;6.15;100.00
48404;BME280;34202;52.536;6.042;2024-03-06T06:27:07;102193.80;;;6.15;100.00
48404;BME280;34202;52.536;6.042;2024-03-06T06:32:08;102196.69;;;6.13;100.00
48404;BME280;34202;52.536;6.042;2024-03-06T06:37:09;102205.69;;;6.14;100.00
48404;BME280;34202;52.536;6.042;2024-03-06T06:42:09;102214.36;;;6.15;100.00
48404;BME280;34202;52.536;6.042;2024-03-06T06:47:10;102225.00;;;6.16;100.00
48404;BME280;34202;52.536;6.042;2024-03-06T06:52:11;102234.09;;;6.15;100.00
48404;BME280;34202;52.536;6.042;2024-03-06T06:57:11;102239.75;;;6.14;100.00
48404;BME280;34202;52.536;6.042;2024-03-06T07:02:12;102244.52;;;6.12;100.00
48404;BME280;34202;52.536;6.042;2024-03-06T07:07:13;102256.93;;;6.12;100.00
48404;BME280;34202;52.536;6.042;2024-03-06T07:12:14;102265.15;;;6.14;100.00
48404;BME280;34202;52.536;6.042;2024-03-06T07:17:14;102268.17;;;6.15;100.00
48404;BME280;34202;52.536;6.042;2024-03-06T07:22:14;102272.21;;;6.17;100.00
48404;BME280;34202;52.536;6.042;2024-03-06T07:27:15;102283.52;;;6.18;100.00
48404;BME280;34202;52.536;6.042;2024-03-06T07:32:15;102287.19;;;6.19;100.00
48404;BME280;34202;52.536;6.042;2024-03-06T07:37:16;102293.43;;;6.23;100.00
48404;BME280;34202;52.536;6.042;2024-03-06T07:42:16;102299.83;;;6.30;100.00
48404;BME280;34202;52.536;6.042;2024-03-06T07:47:19;102303.77;;;6.37;100.00
48404;BME280;34202;52.536;6.042;2024-03-06T07:52:20;102310.14;;;6.44;100.00
48404;BME280;34202;52.536;6.042;2024-03-06T07:57:21;102317.22;;;6.51;100.00
48404;BME280;34202;52.536;6.042;2024-03-06T08:02:21;102317.14;;;6.56;100.00
48404;BME280;34202;52.536;6.042;2024-03-06T08:07:22;102318.45;;;6.63;100.00
48404;BME280;34202;52.536;6.042;2024-03-06T08:12:22;102328.59;;;6.68;100.00
48404;BME280;34202;52.536;6.042;2024-03-06T08:17:22;102327.96;;;6.73;100.00
48404;BME280;34202;52.536;6.042;2024-03-06T08:22:23;102333.23;;;6.79;100.00
48404;BME280;34202;52.536;6.042;2024-03-06T08:27:24;102348.27;;;6.83;100.00
48404;BME280;34202;52.536;6.042;2024-03-06T08:32:24;102356.59;;;6.87;100.00
48404;BME280;34202;52.536;6.042;2024-03-06T08:37:24;102363.36;;;6.91;100.00
48404;BME280;34202;52.536;6.042;2024-03-06T08:42:25;102368.77;;;6.95;100.00
48404;BME280;34202;52.536;6.042;2024-03-06T08:47:26;102366.08;;;7.01;100.00
48404;BME280;34202;52.536;6.042;2024-03-06T08:52:26;102366.58;;;7.08;100.00
48404;BME280;34202;52.536;6.042;2024-03-06T08:57:26;102372.46;;;7.16;100.00
48404;BME280;34202;52.536;6.042;2024-03-06T09:02:28;102378.95;;;7.22;100.00
48404;BME280;34202;52.536;6.042;2024-03-06T09:07:28;102384.66;;;7.29;100.00
48404;BME280;34202;52.536;6.042;2024-03-06T09:12:29;102393.30;;;7.36;100.00
48404;BME280;34202;52.536;6.042;2024-03-06T09:17:30;102397.50;;;7.45;100.00
48404;BME280;34202;52.536;6.042;2024-03-06T09:22:30;102399.93;;;7.53;100.00
48404;BME280;34202;52.536;6.042;2024-03-06T09:27:31;102409.66;;;7.62;100.00
48404;BME280;34202;52.536;6.042;2024-03-06T09:32:32;102416.41;;;7.69;100.00
48404;BME280;34202;52.536;6.042;2024-03-06T09:37:32;102424.70;;;7.81;100.00
48404;BME280;34202;52.536;6.042;2024-03-06T09:42:33;102431.36;;;7.90;100.00
48404;BME280;34202;52.536;6.042;2024-03-06T09:47:34;102439.29;;;7.93;100.00
48404;BME280;34202;52.536;6.042;2024-03-06T09:52:36;102442.35;;;7.96;100.00
48404;BME280;34202;52.536;6.042;2024-03-06T09:57:37;102448.89;;;8.07;100.00
48404;BME280;34202;52.536;6.042;2024-03-06T10:02:38;102453.05;;;8.24;100.00
48404;BME280;34202;52.536;6.042;2024-03-06T10:07:39;102456.42;;;8.34;100.00
48404;BME280;34202;52.536;6.042;2024-03-06T10:12:41;102459.14;;;8.45;100.00
48404;BME280;34202;52.536;6.042;2024-03-06T10:17:42;102462.47;;;8.54;100.00
48404;BME280;34202;52.536;6.042;2024-03-06T10:22:48;102465.35;;;8.65;100.00
48404;BME280;34202;52.536;6.042;2024-03-06T10:28:06;102468.45;;;8.72;100.00
48404;BME280;34202;52.536;6.042;2024-03-06T10:33:08;102469.04;;;8.75;100.00
48404;BME280;34202;52.536;6.042;2024-03-06T10:38:10;102471.13;;;8.79;100.00
48404;BME280;34202;52.536;6.042;2024-03-06T10:43:11;102469.17;;;8.95;100.00
48404;BME280;34202;52.536;6.042;2024-03-06T10:48:17;102474.55;;;9.13;100.00
48404;BME280;34202;52.536;6.042;2024-03-06T10:53:18;102482.75;;;9.32;100.00
48404;BME280;34202;52.536;6.042;2024-03-06T10:58:19;102478.97;;;9.52;100.00
48404;BME280;34202;52.536;6.042;2024-03-06T11:03:20;102473.58;;;9.66;100.00
48404;BME280;34202;52.536;6.042;2024-03-06T11:08:21;102474.30;;;9.66;100.00
48404;BME280;34202;52.536;6.042;2024-03-06T11:13:23;102478.73;;;9.60;100.00
48404;BME280;34202;52.536;6.042;2024-03-06T11:23:29;102489.70;;;9.50;100.00
48404;BME280;34202;52.536;6.042;2024-03-06T11:28:32;102490.41;;;9.46;100.00
48404;BME280;34202;52.536;6.042;2024-03-06T11:33:41;102493.40;;;9.43;100.00
48404;BME280;34202;52.536;6.042;2024-03-06T11:38:46;102492.30;;;9.41;100.00
48404;BME280;34202;52.536;6.042;2024-03-06T11:43:48;102499.42;;;9.50;100.00
48404;BME280;34202;52.536;6.042;2024-03-06T11:48:54;102505.67;;;9.64;100.00
48404;BME280;34202;52.536;6.042;2024-03-06T11:53:55;102506.39;;;9.69;100.00
48404;BME280;34202;52.536;6.042;2024-03-06T11:58:55;102504.47;;;9.69;100.00
48404;BME280;34202;52.536;6.042;2024-03-06T12:03:56;102506.77;;;9.70;100.00
48404;BME280;34202;52.536;6.042;2024-03-06T12:08:58;102512.09;;;9.73;100.00
48404;BME280;34202;52.536;6.042;2024-03-06T12:13:58;102509.60;;;9.76;100.00
48404;BME280;34202;52.536;6.042;2024-03-06T12:18:59;102511.35;;;9.86;100.00
48404;BME280;34202;52.536;6.042;2024-03-06T12:24:07;102513.03;;;9.90;100.00
48404;BME280;34202;52.536;6.042;2024-03-06T12:29:12;102518.17;;;9.92;100.00
48404;BME280;34202;52.536;6.042;2024-03-06T12:34:16;102519.50;;;9.95;100.00
48404;BME280;34202;52.536;6.042;2024-03-06T12:39:17;102520.64;;;9.98;100.00
48404;BME280;34202;52.536;6.042;2024-03-06T12:44:22;102518.39;;;9.99;100.00
48404;BME280;34202;52.536;6.042;2024-03-06T12:49:22;102522.73;;;10.03;100.00
48404;BME280;34202;52.536;6.042;2024-03-06T12:54:22;102523.05;;;10.07;100.00
48404;BME280;34202;52.536;6.042;2024-03-06T12:59:23;102522.43;;;10.09;100.00
48404;BME280;34202;52.536;6.042;2024-03-06T13:04:23;102519.94;;;10.07;100.00
48404;BME280;34202;52.536;6.042;2024-03-06T13:09:24;102516.33;;;10.03;100.00
48404;BME280;34202;52.536;6.042;2024-03-06T13:14:25;102513.09;;;10.05;100.00
48404;BME280;34202;52.536;6.042;2024-03-06T13:19:25;102514.48;;;10.05;100.00
48404;BME280;34202;52.536;6.042;2024-03-06T13:24:26;102518.83;;;10.05;100.00
48404;BME280;34202;52.536;6.042;2024-03-06T13:29:26;102525.13;;;10.06;100.00
48404;BME280;34202;52.536;6.042;2024-03-06T13:34:27;102527.86;;;10.10;100.00
48404;BME280;34202;52.536;6.042;2024-03-06T13:39:27;102529.55;;;10.14;100.00
48404;BME280;34202;52.536;6.042;2024-03-06T13:44:27;102529.74;;;10.19;100.00
48404;BME280;34202;52.536;6.042;2024-03-06T13:49:39;102532.51;;;10.23;100.00
48404;BME280;34202;52.536;6.042;2024-03-06T13:54:41;102533.82;;;10.31;100.00
48404;BME280;34202;52.536;6.042;2024-03-06T13:59:42;102534.47;;;10.39;100.00
48404;BME280;34202;52.536;6.042;2024-03-06T14:04:42;102535.15;;;10.43;100.00
48404;BME280;34202;52.536;6.042;2024-03-06T14:09:43;102537.17;;;10.52;100.00
48404;BME280;34202;52.536;6.042;2024-03-06T14:14:43;102538.20;;;10.62;100.00
48404;BME280;34202;52.536;6.042;2024-03-06T14:19:47;102535.23;;;10.72;100.00
48404;BME280;34202;52.536;6.042;2024-03-06T14:24:47;102542.94;;;10.78;100.00
48404;BME280;34202;52.536;6.042;2024-03-06T14:29:47;102547.83;;;10.73;100.00
48404;BME280;34202;52.536;6.042;2024-03-06T14:34:48;102553.15;;;10.66;100.00
48404;BME280;34202;52.536;6.042;2024-03-06T14:39:48;102556.23;;;10.59;100.00
48404;BME280;34202;52.536;6.042;2024-03-06T14:44:51;102558.50;;;10.54;100.00
48404;BME280;34202;52.536;6.042;2024-03-06T14:49:51;102556.90;;;10.48;100.00
48404;BME280;34202;52.536;6.042;2024-03-06T14:54:52;102554.67;;;10.44;100.00
48404;BME280;34202;52.536;6.042;2024-03-06T14:59:52;102554.31;;;10.43;100.00
48404;BME280;34202;52.536;6.042;2024-03-06T15:04:53;102560.23;;;10.44;100.00
48404;BME280;34202;52.536;6.042;2024-03-06T15:09:53;102562.09;;;10.42;100.00
48404;BME280;34202;52.536;6.042;2024-03-06T15:14:53;102566.23;;;10.41;100.00
48404;BME280;34202;52.536;6.042;2024-03-06T15:19:57;102566.91;;;10.41;100.00
48404;BME280;34202;52.536;6.042;2024-03-06T15:24:57;102570.31;;;10.38;100.00
48404;BME280;34202;52.536;6.042;2024-03-06T15:29:57;102569.90;;;10.37;100.00
48404;BME280;34202;52.536;6.042;2024-03-06T15:34:58;102572.11;;;10.35;100.00
48404;BME280;34202;52.536;6.042;2024-03-06T15:39:59;102574.75;;;10.32;100.00
48404;BME280;34202;52.536;6.042;2024-03-06T15:44:59;102576.23;;;10.25;100.00
48404;BME280;34202;52.536;6.042;2024-03-06T15:50:00;102581.06;;;10.19;100.00
48404;BME280;34202;52.536;6.042;2024-03-06T15:55:00;102578.20;;;10.12;100.00
48404;BME280;34202;52.536;6.042;2024-03-06T16:00:05;102585.30;;;10.06;100.00
48404;BME280;34202;52.536;6.042;2024-03-06T16:05:06;102583.98;;;9.98;100.00
48404;BME280;34202;52.536;6.042;2024-03-06T16:10:08;102589.56;;;9.90;100.00
48404;BME280;34202;52.536;6.042;2024-03-06T16:15:10;102589.75;;;9.81;100.00
48404;BME280;34202;52.536;6.042;2024-03-06T16:20:11;102592.79;;;9.74;100.00
48404;BME280;34202;52.536;6.042;2024-03-06T16:25:11;102592.17;;;9.67;100.00
48404;BME280;34202;52.536;6.042;2024-03-06T16:30:12;102603.84;;;9.58;100.00
48404;BME280;34202;52.536;6.042;2024-03-06T16:35:13;102606.83;;;9.50;100.00
48404;BME280;34202;52.536;6.042;2024-03-06T16:40:13;102605.04;;;9.44;100.00
48404;BME280;34202;52.536;6.042;2024-03-06T16:45:14;102609.36;;;9.40;100.00
48404;BME280;34202;52.536;6.042;2024-03-06T16:50:15;102614.50;;;9.33;100.00
48404;BME280;34202;52.536;6.042;2024-03-06T16:55:15;102619.38;;;9.25;100.00
48404;BME280;34202;52.536;6.042;2024-03-06T17:00:16;102629.34;;;9.18;100.00
48404;BME280;34202;52.536;6.042;2024-03-06T17:05:17;102631.54;;;9.12;100.00
48404;BME280;34202;52.536;6.042;2024-03-06T17:10:17;102636.11;;;9.05;100.00
48404;BME280;34202;52.536;6.042;2024-03-06T17:15:17;102639.78;;;8.97;100.00
48404;BME280;34202;52.536;6.042;2024-03-06T17:20:19;102643.28;;;8.90;100.00
48404;BME280;34202;52.536;6.042;2024-03-06T17:25:20;102648.23;;;8.84;100.00
48404;BME280;34202;52.536;6.042;2024-03-06T17:30:20;102648.49;;;8.77;100.00
48404;BME280;34202;52.536;6.042;2024-03-06T17:35:22;102655.30;;;8.70;100.00
48404;BME280;34202;52.536;6.042;2024-03-06T17:40:23;102663.26;;;8.61;100.00
48404;BME280;34202;52.536;6.042;2024-03-06T17:45:23;102668.98;;;8.54;100.00
48404;BME280;34202;52.536;6.042;2024-03-06T17:50:25;102673.71;;;8.47;100.00
48404;BME280;34202;52.536;6.042;2024-03-06T17:55:26;102677.89;;;8.40;100.00
48404;BME280;34202;52.536;6.042;2024-03-06T18:00:26;102686.10;;;8.34;100.00
48404;BME280;34202;52.536;6.042;2024-03-06T18:05:26;102692.42;;;8.28;100.00
48404;BME280;34202;52.536;6.042;2024-03-06T18:10:27;102699.92;;;8.21;100.00
48404;BME280;34202;52.536;6.042;2024-03-06T18:15:29;102702.33;;;8.13;100.00
48404;BME280;34202;52.536;6.042;2024-03-06T18:20:29;102709.66;;;8.07;100.00
48404;BME280;34202;52.536;6.042;2024-03-06T18:25:30;102710.15;;;7.99;100.00
48404;BME280;34202;52.536;6.042;2024-03-06T18:30:30;102712.99;;;7.89;100.00
48404;BME280;34202;52.536;6.042;2024-03-06T18:35:31;102718.02;;;7.78;100.00
48404;BME280;34202;52.536;6.042;2024-03-06T18:40:31;102721.81;;;7.70;100.00
48404;BME280;34202;52.536;6.042;2024-03-06T18:45:32;102725.81;;;7.60;100.00
48404;BME280;34202;52.536;6.042;2024-03-06T18:50:33;102726.02;;;7.50;100.00
48404;BME280;34202;52.536;6.042;2024-03-06T18:55:33;102729.90;;;7.41;100.00
48404;BME280;34202;52.536;6.042;2024-03-06T19:00:33;102731.34;;;7.31;100.00
48404;BME280;34202;52.536;6.042;2024-03-06T19:05:34;102737.67;;;7.23;100.00
48404;BME280;34202;52.536;6.042;2024-03-06T19:10:35;102740.55;;;7.15;100.00
48404;BME280;34202;52.536;6.042;2024-03-06T19:15:35;102742.30;;;7.09;100.00
48404;BME280;34202;52.536;6.042;2024-03-06T19:20:36;102744.53;;;7.05;100.00
48404;BME280;34202;52.536;6.042;2024-03-06T19:25:39;102751.94;;;7.01;100.00
48404;BME280;34202;52.536;6.042;2024-03-06T19:30:39;102751.05;;;6.94;100.00
48404;BME280;34202;52.536;6.042;2024-03-06T19:35:40;102755.15;;;6.86;100.00
48404;BME280;34202;52.536;6.042;2024-03-06T19:40:41;102756.61;;;6.78;100.00
48404;BME280;34202;52.536;6.042;2024-03-06T19:45:42;102756.84;;;6.69;100.00
48404;BME280;34202;52.536;6.042;2024-03-06T19:50:43;102761.73;;;6.63;100.00
48404;BME280;34202;52.536;6.042;2024-03-06T19:55:46;102765.04;;;6.57;100.00
48404;BME280;34202;52.536;6.042;2024-03-06T20:00:48;102766.69;;;6.49;100.00
48404;BME280;34202;52.536;6.042;2024-03-06T20:05:48;102765.47;;;6.43;100.00
48404;BME280;34202;52.536;6.042;2024-03-06T20:10:49;102772.91;;;6.36;100.00
48404;BME280;34202;52.536;6.042;2024-03-06T20:15:49;102775.52;;;6.30;100.00
48404;BME280;34202;52.536;6.042;2024-03-06T20:20:50;102782.99;;;6.25;100.00
48404;BME280;34202;52.536;6.042;2024-03-06T20:25:51;102778.18;;;6.19;100.00
48404;BME280;34202;52.536;6.042;2024-03-06T20:30:51;102782.11;;;6.12;100.00
48404;BME280;34202;52.536;6.042;2024-03-06T20:35:52;102782.83;;;6.06;100.00
48404;BME280;34202;52.536;6.042;2024-03-06T20:40:53;102786.98;;;6.00;100.00
48404;BME280;34202;52.536;6.042;2024-03-06T20:45:54;102789.65;;;5.93;100.00
48404;BME280;34202;52.536;6.042;2024-03-06T20:50:54;102793.91;;;5.86;100.00
48404;BME280;34202;52.536;6.042;2024-03-06T20:55:55;102788.91;;;5.80;100.00
48404;BME280;34202;52.536;6.042;2024-03-06T21:00:55;102786.23;;;5.75;100.00
48404;BME280;34202;52.536;6.042;2024-03-06T21:05:56;102782.16;;;5.71;100.00
48404;BME280;34202;52.536;6.042;2024-03-06T21:10:56;102780.31;;;5.69;100.00
48404;BME280;34202;52.536;6.042;2024-03-06T21:15:58;102781.14;;;5.65;100.00
48404;BME280;34202;52.536;6.042;2024-03-06T21:21:00;102778.90;;;5.62;100.00
48404;BME280;34202;52.536;6.042;2024-03-06T21:26:00;102781.63;;;5.61;100.00
48404;BME280;34202;52.536;6.042;2024-03-06T21:31:01;102784.89;;;5.58;100.00
48404;BME280;34202;52.536;6.042;2024-03-06T21:36:01;102790.42;;;5.52;100.00
48404;BME280;34202;52.536;6.042;2024-03-06T21:41:02;102787.39;;;5.48;100.00
48404;BME280;34202;52.536;6.042;2024-03-06T21:46:03;102784.15;;;5.45;100.00
48404;BME280;34202;52.536;6.042;2024-03-06T21:51:03;102782.45;;;5.43;100.00
48404;BME280;34202;52.536;6.042;2024-03-06T21:56:04;102785.38;;;5.39;100.00
48404;BME280;34202;52.536;6.042;2024-03-06T22:01:04;102787.69;;;5.35;100.00
48404;BME280;34202;52.536;6.042;2024-03-06T22:06:05;102788.62;;;5.28;100.00
48404;BME280;34202;52.536;6.042;2024-03-06T22:11:06;102785.58;;;5.17;100.00
48404;BME280;34202;52.536;6.042;2024-03-06T22:16:12;102784.05;;;5.09;100.00
48404;BME280;34202;52.536;6.042;2024-03-06T22:21:13;102783.91;;;5.01;100.00
48404;BME280;34202;52.536;6.042;2024-03-06T22:26:14;102780.52;;;4.93;100.00
48404;BME280;34202;52.536;6.042;2024-03-06T22:31:14;102781.30;;;4.83;100.00
48404;BME280;34202;52.536;6.042;2024-03-06T22:36:15;102780.39;;;4.74;100.00
48404;BME280;34202;52.536;6.042;2024-03-06T22:41:20;102780.97;;;4.67;100.00
48404;BME280;34202;52.536;6.042;2024-03-06T22:46:22;102787.14;;;4.60;100.00
48404;BME280;34202;52.536;6.042;2024-03-06T22:51:23;102787.24;;;4.56;100.00
48404;BME280;34202;52.536;6.042;2024-03-06T22:56:23;102784.83;;;4.51;100.00
48404;BME280;34202;52.536;6.042;2024-03-06T23:01:24;102787.19;;;4.47;100.00
48404;BME280;34202;52.536;6.042;2024-03-06T23:06:25;102790.27;;;4.44;100.00
48404;BME280;34202;52.536;6.042;2024-03-06T23:11:25;102793.63;;;4.40;100.00
48404;BME280;34202;52.536;6.042;2024-03-06T23:16:25;102794.97;;;4.34;100.00
48404;BME280;34202;52.536;6.042;2024-03-06T23:23:58;102794.89;;;4.27;100.00
48404;BME280;34202;52.536;6.042;2024-03-06T23:28:58;102790.73;;;4.21;100.00
48404;BME280;34202;52.536;6.042;2024-03-06T23:33:59;102794.10;;;4.17;100.00
48404;BME280;34202;52.536;6.042;2024-03-06T23:38:59;102793.41;;;4.15;100.00
48404;BME280;34202;52.536;6.042;2024-03-06T23:44:00;102798.79;;;4.13;100.00
48404;BME280;34202;52.536;6.042;2024-03-06T23:49:00;102800.02;;;4.08;100.00
48404;BME280;34202;52.536;6.042;2024-03-06T23:54:01;102800.90;;;3.98;100.00
48404;BME280;34202;52.536;6.042;2024-03-06T23:59:01;102803.04;;;3.85;100.00
